Catàleg de serveis del Meteocat
Campanya meteocatpedra

Dades de l'estació automàtica la Quar

?
?
Resum diari 22:30 TU
Dades diàries de l'estació meteorològica
Temperatura mitjana 11.1 °C
Temperatura màxima 16.1 °C 13:39 TU
Temperatura mínima 6.7 °C 3:58 TU
Humitat relativa mitjana 66%
Precipitació acumulada 0.0 mm
Ratxa màxima del vent (10 m) 46.1 km/h - 77º 22:27 TU
Pressió atmosfèrica mitjana 1017.8 hPa

El tram horari està expressat en Temps Universal (TU). Cal sumar una hora en horari d'hivern i dues en horari d'estiu per passar a l'hora oficial.

la Quar

Metadades estació meteorol´gica
Municipi La Quar
Comarca Berguedà
Altitud 873 m
Data alta 13.03.1996
Estat actual Operativa
Dades de període
Període
TU
TM
°C
TX
°C
TN
°C
HRM
%
PPT
mm
VVM (10 m)
km/h
DVM (10 m)
graus
VVX (10 m)
km/h
PM
hPa
00:00 - 00:30 7.5 7.9 7.3 93 0.0 5.4 42 13.7 1019.0
00:30 - 01:00 7.5 7.6 7.4 95 0.0 5.8 33 15.1 1018.6
01:00 - 01:30 7.7 7.8 7.6 95 0.0 7.9 39 19.4 1018.3
01:30 - 02:00 8.0 8.5 7.5 94 0.0 3.2 18 10.4 1018.3
02:00 - 02:30 7.6 7.8 7.5 94 0.0 3.2 34 10.1 1018.7
02:30 - 03:00 7.5 7.8 7.1 94 0.0 4.0 33 11.2 1019.0
03:00 - 03:30 7.1 7.2 7.1 95 0.0 7.2 50 13.7 1019.0
03:30 - 04:00 7.0 7.2 6.7 93 0.0 9.0 50 14.0 1018.8
04:00 - 04:30 7.2 7.5 6.8 91 0.0 9.7 46 14.4 1018.6
04:30 - 05:00 8.0 8.8 7.6 82 0.0 13.3 51 21.6 1018.2
05:00 - 05:30 9.0 9.4 8.8 75 0.0 15.8 50 23.8 1017.7
05:30 - 06:00 9.0 9.2 8.9 75 0.0 10.4 62 19.1 1017.7
06:00 - 06:30 8.8 8.9 8.6 78 0.0 10.4 59 14.8 1018.0
06:30 - 07:00 9.0 9.3 8.8 79 0.0 11.5 52 16.9 1018.3
07:00 - 07:30 9.9 10.6 9.4 76 0.0 9.4 59 16.6 1018.4
07:30 - 08:00 11.3 11.5 10.7 72 0.0 10.1 56 21.2 1018.5
08:00 - 08:30 11.6 11.9 11.3 70 0.0 11.5 68 20.5 1018.6
08:30 - 09:00 12.6 13.0 12.1 67 0.0 11.5 64 24.8 1018.2
09:00 - 09:30 13.4 14.3 12.5 63 0.0 7.2 78 20.5 1018.4
09:30 - 10:00 12.9 13.9 12.4 63 0.0 13.0 68 25.2 1018.7
10:00 - 10:30 12.9 13.3 12.6 61 0.0 11.5 64 27.7 1017.6
10:30 - 11:00 13.7 14.2 13.2 57 0.0 11.9 74 28.1 1017.3
11:00 - 11:30 13.8 14.0 13.7 58 0.0 10.8 76 26.6 1016.7
11:30 - 12:00 14.3 15.1 13.8 57 0.0 7.6 78 26.6 1016.4
12:00 - 12:30 15.2 15.6 14.8 52 0.0 6.5 77 24.8 1016.1
12:30 - 13:00 15.0 15.2 14.6 54 0.0 8.6 76 19.8 1016.1
13:00 - 13:30 15.0 15.4 14.6 56 0.0 9.4 80 23.8 1015.9
13:30 - 14:00 15.4 16.1 14.8 55 0.0 9.0 84 27.4 1015.5
14:00 - 14:30 15.4 15.8 14.9 52 0.0 13.0 78 30.2 1015.2
14:30 - 15:00 15.6 16.0 15.3 49 0.0 10.8 65 31.3 1015.3
15:00 - 15:30 14.8 15.4 14.3 46 0.0 14.8 74 31.7 1016.0
15:30 - 16:00 14.1 14.4 13.5 52 0.0 9.4 80 29.5 1016.4
16:00 - 16:30 13.0 13.4 12.7 52 0.0 15.5 77 28.8 1016.7
16:30 - 17:00 12.3 12.7 11.9 50 0.0 13.0 58 35.3 1016.9
17:00 - 17:30 11.8 11.9 11.5 52 0.0 13.7 58 36.7 1016.9
17:30 - 18:00 11.4 11.5 11.3 53 0.0 15.5 63 34.6 1016.6
18:00 - 18:30 11.2 11.3 11.0 52 0.0 15.1 58 35.6 1016.9
18:30 - 19:00 11.0 11.2 10.7 49 0.0 16.2 69 43.6 1017.0
19:00 - 19:30 11.1 11.2 10.7 46 0.0 21.6 79 43.9 1017.7
19:30 - 20:00 10.8 11.1 10.6 50 0.0 22.7 82 43.6 1018.8
20:00 - 20:30 10.1 10.6 9.7 54 0.0 15.5 76 36.7 1019.4
20:30 - 21:00 9.7 10.0 9.5 56 0.0 8.6 65 29.5 1019.6
21:00 - 21:30 10.1 10.2 9.8 55 0.0 14.0 71 32.4 1019.7
21:30 - 22:00 10.2 10.3 10.0 54 0.0 18.0 78 37.8 1020.1
22:00 - 22:30 10.1 10.2 9.9 54 0.0 15.1 71 46.1 1020.2
22:30 - 23:00 9.9 10.1 9.8 56 0.0 14.0 68 38.9 1020.3

Les dades en taronja només han passat un control de qualitat automàtic. Resta pendent la seva validació definitiva.